Time;durP1;ratioP1;P1;durP2;ratioP2;P2;SDS_P1;SDS_P2;PMS_P1;PMS_P2;Temp;Humidity;BMP_temperature;BMP_pressure;BME280_temperature;BME280_humidity;BME280_pressure;Samples;Min_cycle;Max_cycle;Signal;HPM_P1;HPM_P2
2021/12/31 00:02:08;;;;;;;4.07;3.08;;;;;;;;;;5117929;28;20178;-60
2021/12/31 00:04:34;;;;;;;3.70;2.83;;;;;;;;;;5120335;28;20259;-61
2021/12/31 00:07:00;;;;;;;4.72;2.90;;;;;;;;;;5119279;28;20517;-60
2021/12/31 00:09:26;;;;;;;5.35;3.42;;;;;;;;;;5121863;28;20158;-61
2021/12/31 00:11:52;;;;;;;3.80;2.92;;;;;;;;;;5123109;28;20197;-61
2021/12/31 00:14:20;;;;;;;6.22;3.63;;;;;;;;;;5123031;28;20609;-61
2021/12/31 00:16:46;;;;;;;4.40;3.20;;;;;;;;;;5122504;28;20171;-61
2021/12/31 00:19:13;;;;;;;3.72;3.13;;;;;;;;;;5120774;28;20162;-61
2021/12/31 00:21:42;;;;;;;3.42;2.67;;;;;;;;;;5119687;28;20253;-60
2021/12/31 00:24:07;;;;;;;3.42;2.83;;;;;;;;;;5125232;28;20199;-61
2021/12/31 00:26:34;;;;;;;3.38;2.67;;;;;;;;;;5126917;28;20166;-60
2021/12/31 00:29:00;;;;;;;2.97;2.47;;;;;;;;;;5128944;28;20163;-61
2021/12/31 00:31:26;;;;;;;4.75;2.65;;;;;;;;;;5124470;28;20232;-60
2021/12/31 00:33:53;;;;;;;2.85;2.53;;;;;;;;;;5125815;28;20223;-61
2021/12/31 00:36:19;;;;;;;3.80;2.65;;;;;;;;;;5128802;28;20170;-60
2021/12/31 00:38:45;;;;;;;2.65;2.20;;;;;;;;;;5125040;28;20163;-60
2021/12/31 00:41:11;;;;;;;2.75;2.35;;;;;;;;;;5117559;28;20200;-61
2021/12/31 00:43:37;;;;;;;3.22;2.55;;;;;;;;;;5117162;28;20194;-59
2021/12/31 00:46:03;;;;;;;3.65;2.08;;;;;;;;;;5117095;28;20336;-59
2021/12/31 00:48:29;;;;;;;3.05;2.53;;;;;;;;;;5117435;28;20157;-59
2021/12/31 00:50:56;;;;;;;2.92;2.38;;;;;;;;;;5117547;28;20568;-59
2021/12/31 00:53:22;;;;;;;4.38;2.78;;;;;;;;;;5116678;28;20598;-60
2021/12/31 00:55:48;;;;;;;3.63;2.47;;;;;;;;;;5116701;28;20224;-61
2021/12/31 00:58:14;;;;;;;2.45;2.20;;;;;;;;;;5116848;28;20169;-61
2021/12/31 01:00:40;;;;;;;3.47;2.50;;;;;;;;;;5117063;28;20155;-60
2021/12/31 01:03:06;;;;;;;3.28;2.60;;;;;;;;;;5116840;28;20202;-60
2021/12/31 01:05:32;;;;;;;3.40;2.78;;;;;;;;;;5116784;28;20229;-60
2021/12/31 01:07:58;;;;;;;3.08;2.53;;;;;;;;;;5116694;28;20198;-60
2021/12/31 01:10:26;;;;;;;4.32;2.85;;;;;;;;;;5116521;28;20163;-60
2021/12/31 01:12:52;;;;;;;3.40;2.58;;;;;;;;;;5116215;28;20174;-59
2021/12/31 01:16:03;;;;;;;3.00;2.45;;;;;;;;;;5116740;28;20271;-60
2021/12/31 01:20:37;;;;;;;3.10;2.70;;;;;;;;;;5116534;28;20225;-59
2021/12/31 01:23:04;;;;;;;3.03;2.60;;;;;;;;;;5116128;28;20601;-60
2021/12/31 01:25:30;;;;;;;3.88;2.40;;;;;;;;;;5116722;28;20569;-59
2021/12/31 01:27:55;;;;;;;2.78;2.38;;;;;;;;;;5116063;28;20163;-59
2021/12/31 01:30:22;;;;;;;2.35;2.15;;;;;;;;;;5116135;28;20174;-60
2021/12/31 01:32:48;;;;;;;2.50;2.10;;;;;;;;;;5115824;28;20174;-59
2021/12/31 01:35:14;;;;;;;2.95;2.10;;;;;;;;;;5116242;28;20166;-60
2021/12/31 01:37:40;;;;;;;2.92;2.20;;;;;;;;;;5116164;28;20162;-59
2021/12/31 01:40:07;;;;;;;2.05;1.80;;;;;;;;;;5115874;28;20243;-60
2021/12/31 01:42:33;;;;;;;2.72;2.00;;;;;;;;;;5116023;28;20170;-59
2021/12/31 01:45:06;;;;;;;2.10;1.67;;;;;;;;;;5115906;28;20175;-60
2021/12/31 01:47:55;;;;;;;2.22;2.03;;;;;;;;;;5116237;28;20155;-60
2021/12/31 01:50:21;;;;;;;2.30;2.00;;;;;;;;;;5097868;28;20163;-60
2021/12/31 01:52:47;;;;;;;1.98;1.52;;;;;;;;;;5115697;28;20156;-60
2021/12/31 01:55:13;;;;;;;2.20;1.85;;;;;;;;;;5115658;28;20166;-60
2021/12/31 01:57:40;;;;;;;2.90;2.03;;;;;;;;;;5115651;28;20574;-60
2021/12/31 02:00:07;;;;;;;2.00;1.55;;;;;;;;;;5115852;28;20171;-60
2021/12/31 02:02:32;;;;;;;1.98;1.65;;;;;;;;;;5115466;28;20182;-60
2021/12/31 02:04:58;;;;;;;2.00;1.80;;;;;;;;;;5115484;28;20191;-60
2021/12/31 02:07:24;;;;;;;1.60;1.42;;;;;;;;;;5115752;28;20234;-60
2021/12/31 02:09:54;;;;;;;2.33;1.80;;;;;;;;;;5115507;28;20163;-60
2021/12/31 02:12:20;;;;;;;1.92;1.70;;;;;;;;;;5115674;28;20197;-60
2021/12/31 02:14:47;;;;;;;1.83;1.65;;;;;;;;;;5115561;28;20245;-60
2021/12/31 02:17:13;;;;;;;1.35;1.25;;;;;;;;;;5115389;28;20162;-60
2021/12/31 02:19:39;;;;;;;1.60;1.50;;;;;;;;;;5115100;28;20605;-59
2021/12/31 02:22:05;;;;;;;1.58;1.33;;;;;;;;;;5115437;28;20159;-60
2021/12/31 02:24:32;;;;;;;1.25;1.02;;;;;;;;;;5114253;28;20202;-60
2021/12/31 02:26:58;;;;;;;1.30;1.20;;;;;;;;;;5115383;28;20177;-60
2021/12/31 02:29:25;;;;;;;0.93;0.90;;;;;;;;;;5115113;28;20170;-60
2021/12/31 02:31:52;;;;;;;0.88;0.88;;;;;;;;;;5114933;28;20174;-58
2021/12/31 02:34:18;;;;;;;2.75;1.10;;;;;;;;;;5114761;28;20602;-60
2021/12/31 02:36:44;;;;;;;1.30;1.20;;;;;;;;;;5114826;28;20528;-60
2021/12/31 02:39:10;;;;;;;1.52;1.17;;;;;;;;;;5114664;28;20163;-60
2021/12/31 02:41:36;;;;;;;1.10;1.00;;;;;;;;;;5114627;28;20266;-60
2021/12/31 02:44:02;;;;;;;0.98;0.95;;;;;;;;;;5114405;28;20205;-59
2021/12/31 02:46:28;;;;;;;0.95;0.95;;;;;;;;;;5114623;28;20159;-60
2021/12/31 02:48:57;;;;;;;1.02;0.93;;;;;;;;;;5114765;28;20502;-60
2021/12/31 02:51:24;;;;;;;0.80;0.80;;;;;;;;;;5114886;28;20249;-60
2021/12/31 02:53:52;;;;;;;1.08;1.00;;;;;;;;;;5114766;28;20182;-58
2021/12/31 02:56:18;;;;;;;1.10;1.00;;;;;;;;;;5114769;28;20626;-59
2021/12/31 02:58:44;;;;;;;0.70;0.70;;;;;;;;;;5096408;28;20167;-60
2021/12/31 03:01:10;;;;;;;1.00;0.90;;;;;;;;;;5114852;28;20193;-60
2021/12/31 03:03:37;;;;;;;0.82;0.82;;;;;;;;;;5126533;28;20195;-60
2021/12/31 03:06:03;;;;;;;1.48;1.20;;;;;;;;;;5115185;28;20191;-60
2021/12/31 03:08:30;;;;;;;1.20;1.10;;;;;;;;;;5114244;28;20177;-60
2021/12/31 03:10:57;;;;;;;2.50;1.15;;;;;;;;;;5114211;28;20167;-60
2021/12/31 03:13:23;;;;;;;1.42;1.33;;;;;;;;;;5114261;28;20165;-60
2021/12/31 03:15:51;;;;;;;1.40;1.30;;;;;;;;;;5114187;28;20249;-59
2021/12/31 03:18:17;;;;;;;1.33;1.23;;;;;;;;;;5114345;28;20609;-60
2021/12/31 03:20:57;;;;;;;1.73;1.30;;;;;;;;;;5113961;28;20163;-60
2021/12/31 03:23:22;;;;;;;1.90;1.48;;;;;;;;;;5114240;28;20155;-60
2021/12/31 03:25:48;;;;;;;1.23;1.10;;;;;;;;;;5114361;28;20178;-60
2021/12/31 03:28:14;;;;;;;1.45;1.35;;;;;;;;;;5114307;28;20155;-60
2021/12/31 03:30:40;;;;;;;1.30;1.20;;;;;;;;;;5113794;28;20594;-60
2021/12/31 03:33:06;;;;;;;1.35;1.25;;;;;;;;;;5113933;28;20246;-60
2021/12/31 03:35:32;;;;;;;2.50;1.17;;;;;;;;;;5113751;28;20178;-60
2021/12/31 03:37:58;;;;;;;0.80;0.80;;;;;;;;;;5096016;28;20177;-60
2021/12/31 03:40:24;;;;;;;1.40;0.90;;;;;;;;;;5114265;28;20163;-60
2021/12/31 03:42:50;;;;;;;0.98;0.90;;;;;;;;;;5114453;28;20262;-59
2021/12/31 03:45:16;;;;;;;1.13;0.95;;;;;;;;;;5113814;28;20285;-59
2021/12/31 03:47:42;;;;;;;1.50;1.00;;;;;;;;;;5114052;28;20165;-60
2021/12/31 03:50:08;;;;;;;2.00;1.50;;;;;;;;;;5113976;28;20598;-59
2021/12/31 03:52:40;;;;;;;2.75;1.40;;;;;;;;;;5113998;28;20246;-60
2021/12/31 03:55:07;;;;;;;3.38;1.50;;;;;;;;;;5113776;28;20166;-59
2021/12/31 03:57:33;;;;;;;1.80;1.50;;;;;;;;;;5114083;28;20242;-59
2021/12/31 03:59:59;;;;;;;2.35;1.60;;;;;;;;;;5113780;28;20185;-59
2021/12/31 04:02:25;;;;;;;2.88;1.70;;;;;;;;;;5114207;28;20587;-60
2021/12/31 04:04:51;;;;;;;2.40;1.67;;;;;;;;;;5095869;28;20426;-60
2021/12/31 04:07:16;;;;;;;2.58;1.77;;;;;;;;;;5113946;28;20242;-59
2021/12/31 04:09:42;;;;;;;3.28;1.85;;;;;;;;;;5113779;28;20208;-60
2021/12/31 04:12:09;;;;;;;2.85;1.60;;;;;;;;;;5113600;28;20159;-60
2021/12/31 04:14:34;;;;;;;4.68;2.40;;;;;;;;;;5113635;28;20594;-60
2021/12/31 04:17:00;;;;;;;3.28;2.00;;;;;;;;;;5113570;28;20179;-60
2021/12/31 04:19:26;;;;;;;6.25;2.55;;;;;;;;;;5113423;28;20171;-60
2021/12/31 04:21:52;;;;;;;4.80;2.25;;;;;;;;;;5113441;28;20160;-60
2021/12/31 04:26:53;;;;;;;4.53;2.63;;;;;;;;;;5113394;28;20223;-60
2021/12/31 04:29:19;;;;;;;5.60;2.70;;;;;;;;;;5113685;28;20677;-60
2021/12/31 04:31:45;;;;;;;7.22;2.60;;;;;;;;;;5113235;28;20183;-60
2021/12/31 04:34:12;;;;;;;5.80;2.38;;;;;;;;;;5113565;28;20212;-60
2021/12/31 04:36:38;;;;;;;2.72;2.30;;;;;;;;;;5113449;28;20508;-59
2021/12/31 04:39:04;;;;;;;4.10;2.50;;;;;;;;;;5113534;28;20218;-60
2021/12/31 04:41:30;;;;;;;3.97;2.30;;;;;;;;;;5113179;28;20254;-59
2021/12/31 04:43:56;;;;;;;3.25;2.58;;;;;;;;;;5113354;28;20273;-60
2021/12/31 04:46:21;;;;;;;3.58;2.50;;;;;;;;;;5113319;28;20557;-60
2021/12/31 04:48:47;;;;;;;3.75;3.05;;;;;;;;;;5116486;28;20193;-60
2021/12/31 04:51:13;;;;;;;5.32;3.13;;;;;;;;;;5116970;28;20162;-59
2021/12/31 04:53:39;;;;;;;7.28;3.30;;;;;;;;;;5117248;28;20171;-60
2021/12/31 04:56:05;;;;;;;5.93;3.40;;;;;;;;;;5116809;28;20245;-60
2021/12/31 04:58:31;;;;;;;4.93;3.45;;;;;;;;;;5116857;28;20171;-59
2021/12/31 05:00:57;;;;;;;5.45;3.10;;;;;;;;;;5116539;28;20182;-60
2021/12/31 05:03:23;;;;;;;3.33;2.80;;;;;;;;;;5116224;28;20517;-60
2021/12/31 05:05:49;;;;;;;6.85;3.15;;;;;;;;;;5116236;28;20182;-60
2021/12/31 05:08:15;;;;;;;8.27;3.60;;;;;;;;;;5116516;28;20468;-60
2021/12/31 05:10:41;;;;;;;6.40;3.30;;;;;;;;;;5116284;28;20170;-60
2021/12/31 05:13:09;;;;;;;6.60;3.40;;;;;;;;;;5116686;28;20163;-60
2021/12/31 05:15:38;;;;;;;6.50;3.42;;;;;;;;;;5116550;28;20254;-60
2021/12/31 05:18:04;;;;;;;6.05;3.35;;;;;;;;;;5116531;28;20181;-60
2021/12/31 05:20:30;;;;;;;4.75;3.13;;;;;;;;;;5116392;28;20177;-60
2021/12/31 05:22:59;;;;;;;6.03;3.90;;;;;;;;;;5116102;28;20163;-60
2021/12/31 05:25:25;;;;;;;7.22;4.03;;;;;;;;;;5115843;28;20251;-60
2021/12/31 05:27:51;;;;;;;4.82;3.80;;;;;;;;;;5116308;28;20178;-60
2021/12/31 05:30:18;;;;;;;9.25;4.55;;;;;;;;;;5115976;28;20165;-60
2021/12/31 05:32:44;;;;;;;8.90;4.30;;;;;;;;;;5115898;28;20183;-60
2021/12/31 05:35:10;;;;;;;8.48;4.20;;;;;;;;;;5115848;28;20216;-59
2021/12/31 05:37:36;;;;;;;7.72;4.10;;;;;;;;;;5115998;28;20240;-59
2021/12/31 05:40:02;;;;;;;6.97;3.90;;;;;;;;;;5115812;28;20585;-60
2021/12/31 05:42:28;;;;;;;8.65;4.20;;;;;;;;;;5115658;28;20209;-60
2021/12/31 05:44:54;;;;;;;8.75;4.30;;;;;;;;;;5115766;28;20569;-60
2021/12/31 05:47:20;;;;;;;12.15;4.10;;;;;;;;;;5115566;28;20183;-60
2021/12/31 05:49:46;;;;;;;10.68;4.05;;;;;;;;;;5115594;28;20159;-60
2021/12/31 05:52:12;;;;;;;9.23;3.80;;;;;;;;;;5115793;28;20174;-60
2021/12/31 05:54:38;;;;;;;8.32;3.80;;;;;;;;;;5115851;28;20175;-60
2021/12/31 05:57:04;;;;;;;6.93;3.70;;;;;;;;;;5115416;28;20171;-60
2021/12/31 05:59:30;;;;;;;10.65;3.70;;;;;;;;;;5115646;28;20254;-59
2021/12/31 06:01:56;;;;;;;7.57;3.25;;;;;;;;;;5115289;28;20177;-61
2021/12/31 06:04:22;;;;;;;14.90;4.18;;;;;;;;;;5115438;28;20640;-61
2021/12/31 06:06:49;;;;;;;8.35;3.72;;;;;;;;;;5115182;28;20602;-61
2021/12/31 06:09:14;;;;;;;11.50;3.83;;;;;;;;;;5115270;28;20163;-61
2021/12/31 06:11:41;;;;;;;8.30;3.75;;;;;;;;;;5115137;28;20220;-61
2021/12/31 06:14:07;;;;;;;5.68;3.22;;;;;;;;;;5115374;28;20194;-60
2021/12/31 06:16:36;;;;;;;6.50;3.30;;;;;;;;;;5115466;28;20404;-60
2021/12/31 06:19:04;;;;;;;6.20;3.20;;;;;;;;;;5116096;28;20171;-60
2021/12/31 06:21:29;;;;;;;5.65;3.33;;;;;;;;;;5115125;28;20167;-60
2021/12/31 06:23:55;;;;;;;10.10;3.55;;;;;;;;;;5114932;28;20190;-61
2021/12/31 06:26:21;;;;;;;5.60;3.35;;;;;;;;;;5114871;28;20175;-61
2021/12/31 06:28:47;;;;;;;8.25;3.22;;;;;;;;;;5115194;28;20159;-59
2021/12/31 06:31:13;;;;;;;7.40;3.30;;;;;;;;;;5114863;28;20174;-60
2021/12/31 06:33:39;;;;;;;5.82;3.35;;;;;;;;;;5114756;28;20151;-61
2021/12/31 06:36:05;;;;;;;6.60;2.78;;;;;;;;;;5114619;28;20166;-61
2021/12/31 06:38:31;;;;;;;8.43;3.42;;;;;;;;;;5114593;28;20228;-61
2021/12/31 06:40:57;;;;;;;6.18;3.05;;;;;;;;;;5114656;28;20163;-61
2021/12/31 06:43:23;;;;;;;9.48;3.47;;;;;;;;;;5114452;28;20167;-61
2021/12/31 06:45:49;;;;;;;6.07;2.92;;;;;;;;;;5114520;28;20169;-61
2021/12/31 06:48:14;;;;;;;9.50;2.97;;;;;;;;;;5114664;28;20158;-61
2021/12/31 06:50:40;;;;;;;6.97;2.90;;;;;;;;;;5114538;28;20162;-61
2021/12/31 06:53:07;;;;;;;5.15;2.70;;;;;;;;;;5114248;28;20163;-60
2021/12/31 06:55:33;;;;;;;5.90;2.90;;;;;;;;;;5114435;28;20167;-60
2021/12/31 06:57:59;;;;;;;6.05;2.70;;;;;;;;;;5114237;28;20167;-61
2021/12/31 07:00:25;;;;;;;6.55;2.70;;;;;;;;;;5114557;28;20174;-61
2021/12/31 07:02:51;;;;;;;7.35;2.85;;;;;;;;;;5114185;28;20162;-61
2021/12/31 07:05:17;;;;;;;4.82;2.80;;;;;;;;;;5114122;28;20201;-61
2021/12/31 07:07:43;;;;;;;7.88;3.10;;;;;;;;;;5114431;28;20266;-60
2021/12/31 07:10:09;;;;;;;5.50;2.70;;;;;;;;;;5113703;28;20637;-61
2021/12/31 07:12:35;;;;;;;5.60;2.85;;;;;;;;;;5113998;28;20184;-60
2021/12/31 07:15:01;;;;;;;8.55;3.25;;;;;;;;;;5114309;28;20167;-60
2021/12/31 07:17:29;;;;;;;6.45;2.75;;;;;;;;;;5113878;28;20518;-60
2021/12/31 07:19:56;;;;;;;8.68;2.67;;;;;;;;;;5114245;28;20171;-61
2021/12/31 07:22:22;;;;;;;11.27;3.25;;;;;;;;;;5114081;28;20178;-61
2021/12/31 07:24:48;;;;;;;9.43;3.35;;;;;;;;;;5114323;28;20517;-61
2021/12/31 07:27:14;;;;;;;5.25;2.72;;;;;;;;;;5113751;28;20181;-60
2021/12/31 07:29:40;;;;;;;8.13;3.08;;;;;;;;;;5114135;28;20608;-60
2021/12/31 07:32:06;;;;;;;7.90;3.25;;;;;;;;;;5113715;28;20174;-61
2021/12/31 07:34:32;;;;;;;7.82;3.33;;;;;;;;;;5113733;28;20179;-61
2021/12/31 07:36:58;;;;;;;11.80;3.33;;;;;;;;;;5113972;28;20223;-61
2021/12/31 07:39:30;;;;;;;9.57;3.20;;;;;;;;;;5113770;28;20166;-61
2021/12/31 07:41:56;;;;;;;7.13;3.50;;;;;;;;;;5113938;28;20227;-59
2021/12/31 07:44:22;;;;;;;10.05;3.50;;;;;;;;;;5113606;28;20586;-61
2021/12/31 07:46:48;;;;;;;5.32;3.20;;;;;;;;;;5113614;28;20163;-61
2021/12/31 07:49:14;;;;;;;9.85;3.35;;;;;;;;;;5113647;28;20216;-61
2021/12/31 07:51:40;;;;;;;6.30;3.58;;;;;;;;;;5113898;28;20163;-61
2021/12/31 07:54:06;;;;;;;9.68;3.72;;;;;;;;;;5113772;28;20163;-61
2021/12/31 07:56:32;;;;;;;7.63;4.13;;;;;;;;;;5113629;28;20170;-61
2021/12/31 07:58:57;;;;;;;5.82;4.00;;;;;;;;;;5113830;28;20245;-60
2021/12/31 08:01:23;;;;;;;8.15;4.32;;;;;;;;;;5113536;28;20171;-60
2021/12/31 08:03:49;;;;;;;10.32;5.18;;;;;;;;;;5113420;28;20643;-61
2021/12/31 08:06:15;;;;;;;7.15;4.20;;;;;;;;;;5113752;28;20171;-61
2021/12/31 08:08:41;;;;;;;7.00;3.22;;;;;;;;;;5113349;28;20174;-61
2021/12/31 08:11:07;;;;;;;10.27;3.60;;;;;;;;;;5113453;28;20170;-60
2021/12/31 08:13:33;;;;;;;8.20;3.63;;;;;;;;;;5113300;28;20166;-60
2021/12/31 08:15:59;;;;;;;6.70;3.45;;;;;;;;;;5095543;28;20171;-62
2021/12/31 08:18:25;;;;;;;8.35;4.03;;;;;;;;;;5113298;28;20216;-60
2021/12/31 08:20:51;;;;;;;9.50;3.80;;;;;;;;;;5113382;28;20245;-60
2021/12/31 08:23:17;;;;;;;7.43;3.88;;;;;;;;;;5115762;28;20288;-60
2021/12/31 08:25:43;;;;;;;8.48;4.22;;;;;;;;;;5117067;28;20634;-60
2021/12/31 08:28:10;;;;;;;8.25;3.75;;;;;;;;;;5117083;28;20163;-60
2021/12/31 08:30:36;;;;;;;8.98;4.20;;;;;;;;;;5116884;28;20155;-60
2021/12/31 08:33:02;;;;;;;9.80;4.97;;;;;;;;;;5117014;28;20214;-60
2021/12/31 08:35:28;;;;;;;5.47;4.53;;;;;;;;;;5117448;28;20197;-60
2021/12/31 08:37:54;;;;;;;7.43;4.65;;;;;;;;;;5117024;28;20163;-60
2021/12/31 08:40:20;;;;;;;9.13;5.35;;;;;;;;;;5117273;28;20498;-60
2021/12/31 08:42:46;;;;;;;7.03;5.07;;;;;;;;;;5117218;28;20190;-59
2021/12/31 08:45:12;;;;;;;7.05;4.97;;;;;;;;;;5116748;28;20687;-59
2021/12/31 08:47:38;;;;;;;7.85;4.75;;;;;;;;;;5116743;28;20160;-61
2021/12/31 08:50:04;;;;;;;8.57;4.90;;;;;;;;;;5116699;28;20212;-61
2021/12/31 08:52:30;;;;;;;7.30;4.95;;;;;;;;;;5116950;28;20185;-61
2021/12/31 08:54:56;;;;;;;10.75;5.80;;;;;;;;;;5116696;28;20167;-61
2021/12/31 08:57:22;;;;;;;7.47;5.25;;;;;;;;;;5117074;28;20193;-60
2021/12/31 08:59:48;;;;;;;5.90;4.78;;;;;;;;;;5117203;28;20227;-60
2021/12/31 09:02:13;;;;;;;7.60;5.30;;;;;;;;;;5117398;28;20177;-60
2021/12/31 09:04:39;;;;;;;8.57;5.05;;;;;;;;;;5117499;28;20187;-61
2021/12/31 09:07:05;;;;;;;10.52;5.22;;;;;;;;;;5117742;28;20224;-60
2021/12/31 09:09:31;;;;;;;9.80;5.68;;;;;;;;;;5117248;28;20172;-60
2021/12/31 09:11:57;;;;;;;10.63;5.78;;;;;;;;;;5117775;28;20499;-60
2021/12/31 09:14:23;;;;;;;10.05;6.10;;;;;;;;;;5117892;28;20212;-61
2021/12/31 09:16:50;;;;;;;7.80;5.50;;;;;;;;;;5117087;28;20159;-61
2021/12/31 09:19:16;;;;;;;7.93;5.70;;;;;;;;;;5117306;28;20251;-61
2021/12/31 09:21:42;;;;;;;8.20;5.85;;;;;;;;;;5117248;28;20174;-61
2021/12/31 09:24:08;;;;;;;7.15;5.63;;;;;;;;;;5116779;28;20201;-61
2021/12/31 09:26:35;;;;;;;8.88;6.28;;;;;;;;;;5116230;28;20227;-58
2021/12/31 09:29:01;;;;;;;8.07;6.28;;;;;;;;;;5116438;28;20159;-59
2021/12/31 09:31:27;;;;;;;8.10;5.82;;;;;;;;;;5116233;28;20243;-58
2021/12/31 09:33:53;;;;;;;8.82;6.35;;;;;;;;;;5115688;28;20246;-59
2021/12/31 09:36:19;;;;;;;7.68;6.35;;;;;;;;;;5116418;28;20549;-61
2021/12/31 09:38:44;;;;;;;9.18;6.40;;;;;;;;;;5115994;28;20163;-61
2021/12/31 09:41:10;;;;;;;8.60;6.18;;;;;;;;;;5116033;28;20550;-60
2021/12/31 09:43:38;;;;;;;10.25;7.22;;;;;;;;;;5116174;28;20170;-60
2021/12/31 09:46:04;;;;;;;7.57;6.57;;;;;;;;;;5116201;28;20163;-61
2021/12/31 09:48:30;;;;;;;8.95;7.22;;;;;;;;;;5115742;28;20159;-61
2021/12/31 09:50:57;;;;;;;8.00;6.93;;;;;;;;;;5115762;28;20159;-61
2021/12/31 09:53:24;;;;;;;11.13;7.40;;;;;;;;;;5115899;28;20212;-61
2021/12/31 09:55:59;;;;;;;10.43;7.35;;;;;;;;;;5115959;28;20167;-60
2021/12/31 09:58:26;;;;;;;9.68;6.93;;;;;;;;;;5115538;28;20162;-60
2021/12/31 10:00:57;;;;;;;11.18;7.05;;;;;;;;;;5115440;28;20182;-61
2021/12/31 10:03:30;;;;;;;10.10;7.43;;;;;;;;;;5115789;28;20162;-61
2021/12/31 10:05:57;;;;;;;8.13;6.63;;;;;;;;;;5115513;28;20245;-60
2021/12/31 10:08:25;;;;;;;9.57;7.53;;;;;;;;;;5115311;28;20607;-60
2021/12/31 10:11:04;;;;;;;8.05;6.65;;;;;;;;;;5115431;28;20158;-60
2021/12/31 10:13:31;;;;;;;9.23;7.10;;;;;;;;;;5115311;28;20163;-60
2021/12/31 10:15:57;;;;;;;9.68;8.23;;;;;;;;;;5115224;28;20558;-60
2021/12/31 10:18:33;;;;;;;10.40;7.38;;;;;;;;;;5115470;28;20159;-60
2021/12/31 10:20:59;;;;;;;7.82;7.05;;;;;;;;;;5115106;28;20606;-60
2021/12/31 10:23:25;;;;;;;11.13;7.28;;;;;;;;;;5115406;28;20178;-60
2021/12/31 10:25:51;;;;;;;10.52;8.02;;;;;;;;;;5114907;28;20187;-60
2021/12/31 10:28:17;;;;;;;9.77;6.60;;;;;;;;;;5115043;28;20189;-60
2021/12/31 10:30:44;;;;;;;6.95;6.25;;;;;;;;;;5114787;28;20239;-60
2021/12/31 10:33:10;;;;;;;8.85;6.15;;;;;;;;;;5114893;28;20166;-60
2021/12/31 10:35:40;;;;;;;7.65;6.35;;;;;;;;;;5114929;28;20175;-60
2021/12/31 10:38:06;;;;;;;12.20;7.00;;;;;;;;;;5115188;28;20227;-60
2021/12/31 10:40:45;;;;;;;7.75;5.63;;;;;;;;;;5114600;28;20170;-60
2021/12/31 10:43:18;;;;;;;7.80;6.30;;;;;;;;;;5114682;28;20249;-60
2021/12/31 10:45:57;;;;;;;7.78;6.50;;;;;;;;;;5114057;28;20179;-60
2021/12/31 10:48:36;;;;;;;8.73;6.13;;;;;;;;;;5114525;28;20170;-60
2021/12/31 10:51:02;;;;;;;7.93;6.00;;;;;;;;;;5114447;28;20151;-60
2021/12/31 10:53:36;;;;;;;6.15;5.63;;;;;;;;;;5114608;28;20170;-60
2021/12/31 10:56:07;;;;;;;7.78;5.65;;;;;;;;;;5114889;28;20468;-60
2021/12/31 10:58:33;;;;;;;6.00;5.40;;;;;;;;;;5114846;28;20167;-60
2021/12/31 11:00:59;;;;;;;6.28;5.53;;;;;;;;;;5114311;28;20216;-60
2021/12/31 11:03:25;;;;;;;7.75;4.82;;;;;;;;;;5114322;28;20202;-60
2021/12/31 11:05:51;;;;;;;9.30;5.30;;;;;;;;;;5114536;28;20199;-60
2021/12/31 11:08:17;;;;;;;6.05;5.40;;;;;;;;;;5114380;28;20170;-61
2021/12/31 11:10:43;;;;;;;6.47;5.30;;;;;;;;;;5114225;28;20602;-61
2021/12/31 11:13:14;;;;;;;8.13;4.95;;;;;;;;;;5114149;28;20186;-60
2021/12/31 11:15:44;;;;;;;5.93;5.30;;;;;;;;;;5114092;28;20652;-61
2021/12/31 11:18:11;;;;;;;7.13;4.55;;;;;;;;;;5114485;28;20167;-60
2021/12/31 11:20:38;;;;;;;6.90;4.32;;;;;;;;;;5114113;28;20163;-61
2021/12/31 11:23:04;;;;;;;7.00;4.75;;;;;;;;;;5096174;28;20175;-60
2021/12/31 11:25:30;;;;;;;4.97;4.30;;;;;;;;;;5113788;28;20692;-60
2021/12/31 11:27:57;;;;;;;5.63;4.65;;;;;;;;;;5115146;28;20166;-61
2021/12/31 11:30:28;;;;;;;5.78;4.30;;;;;;;;;;5114528;28;20166;-61
2021/12/31 11:32:55;;;;;;;7.05;3.90;;;;;;;;;;5114733;28;20483;-60
2021/12/31 11:35:35;;;;;;;4.68;4.05;;;;;;;;;;5115066;28;20179;-58
2021/12/31 11:38:02;;;;;;;4.72;3.60;;;;;;;;;;5114788;28;20170;-61
2021/12/31 11:40:29;;;;;;;7.03;3.97;;;;;;;;;;5114062;28;20159;-61
2021/12/31 11:43:13;;;;;;;3.97;3.67;;;;;;;;;;5114227;28;20319;-60
2021/12/31 11:45:40;;;;;;;6.05;3.53;;;;;;;;;;5113838;28;20191;-61
2021/12/31 11:48:26;;;;;;;5.40;3.65;;;;;;;;;;5113875;28;20201;-61
2021/12/31 11:51:12;;;;;;;4.60;3.58;;;;;;;;;;5062434;28;20189;-61
2021/12/31 11:53:57;;;;;;;3.90;3.50;;;;;;;;;;5113663;28;20174;-61
2021/12/31 11:56:35;;;;;;;4.25;2.90;;;;;;;;;;5114499;28;20640;-60
2021/12/31 11:59:21;;;;;;;3.53;2.83;;;;;;;;;;5117928;28;20170;-61
2021/12/31 12:01:50;;;;;;;6.45;3.15;;;;;;;;;;5117831;28;20216;-60
2021/12/31 12:04:23;;;;;;;3.40;2.92;;;;;;;;;;5118279;28;20289;-60
2021/12/31 12:06:56;;;;;;;3.60;2.67;;;;;;;;;;5117971;28;20186;-61
2021/12/31 12:09:46;;;;;;;4.28;2.60;;;;;;;;;;5117895;28;20163;-61
2021/12/31 12:12:20;;;;;;;4.40;2.72;;;;;;;;;;5070930;28;20186;-60
2021/12/31 12:14:47;;;;;;;6.72;2.53;;;;;;;;;;5117537;28;20177;-60
2021/12/31 12:17:14;;;;;;;2.60;2.40;;;;;;;;;;5117569;28;20574;-61
2021/12/31 12:19:46;;;;;;;3.58;2.40;;;;;;;;;;5117627;28;20170;-61
2021/12/31 12:22:28;;;;;;;4.15;2.60;;;;;;;;;;5117629;28;20250;-61
2021/12/31 12:24:59;;;;;;;3.25;2.30;;;;;;;;;;5117325;28;20225;-61
2021/12/31 12:27:26;;;;;;;2.85;2.40;;;;;;;;;;5117519;28;20162;-61
2021/12/31 12:29:52;;;;;;;3.45;2.15;;;;;;;;;;5117776;28;20230;-60
2021/12/31 12:32:30;;;;;;;2.33;2.13;;;;;;;;;;5117889;28;20184;-59
2021/12/31 12:34:56;;;;;;;4.13;2.20;;;;;;;;;;5117525;28;20162;-59
2021/12/31 12:37:28;;;;;;;4.57;2.40;;;;;;;;;;5117163;28;20175;-59
2021/12/31 12:39:58;;;;;;;3.47;2.22;;;;;;;;;;5117135;28;20598;-61
2021/12/31 12:42:24;;;;;;;3.60;2.60;;;;;;;;;;5117190;28;20178;-61
2021/12/31 12:45:00;;;;;;;5.05;2.40;;;;;;;;;;5116981;28;20187;-61
2021/12/31 12:47:26;;;;;;;4.43;2.55;;;;;;;;;;5117065;28;20219;-60
2021/12/31 12:49:58;;;;;;;3.88;2.75;;;;;;;;;;5116910;28;20172;-61
2021/12/31 12:52:25;;;;;;;6.35;3.25;;;;;;;;;;5116850;28;20174;-61
2021/12/31 12:55:09;;;;;;;5.10;3.63;;;;;;;;;;5117021;28;20210;-60
2021/12/31 12:57:35;;;;;;;3.72;3.13;;;;;;;;;;5116773;28;20617;-60
2021/12/31 13:00:01;;;;;;;3.72;3.30;;;;;;;;;;5116978;28;20207;-61
2021/12/31 13:02:40;;;;;;;5.22;3.20;;;;;;;;;;5116758;28;20159;-62
2021/12/31 13:05:14;;;;;;;3.10;2.72;;;;;;;;;;5116835;28;20284;-61
2021/12/31 13:07:52;;;;;;;5.78;3.67;;;;;;;;;;5116834;28;20578;-60
2021/12/31 13:10:19;;;;;;;4.57;3.72;;;;;;;;;;5116973;28;20533;-60
2021/12/31 13:12:46;;;;;;;4.85;3.55;;;;;;;;;;5116900;28;20194;-60
2021/12/31 13:15:12;;;;;;;3.85;3.47;;;;;;;;;;5116802;28;20163;-61
2021/12/31 13:17:39;;;;;;;4.88;3.25;;;;;;;;;;5116326;28;20614;-61
2021/12/31 13:20:11;;;;;;;4.95;3.60;;;;;;;;;;5116428;28;20616;-61
2021/12/31 13:22:38;;;;;;;4.00;3.50;;;;;;;;;;5116654;28;20167;-60
2021/12/31 13:25:05;;;;;;;4.40;3.75;;;;;;;;;;5116309;28;20191;-62
2021/12/31 13:27:31;;;;;;;7.18;3.63;;;;;;;;;;5116037;28;20169;-61
2021/12/31 13:30:07;;;;;;;4.15;3.15;;;;;;;;;;5116277;28;20167;-60
2021/12/31 13:32:40;;;;;;;5.88;3.47;;;;;;;;;;5115903;28;20177;-61
2021/12/31 13:35:06;;;;;;;4.00;3.28;;;;;;;;;;5116183;28;20173;-61
2021/12/31 13:37:39;;;;;;;4.07;3.28;;;;;;;;;;5115823;28;20185;-61
2021/12/31 13:40:07;;;;;;;4.07;3.40;;;;;;;;;;5115835;28;20200;-61
2021/12/31 13:42:34;;;;;;;5.53;3.63;;;;;;;;;;5115632;28;20614;-61
2021/12/31 13:45:00;;;;;;;5.10;3.40;;;;;;;;;;5115958;28;20191;-60
2021/12/31 13:47:26;;;;;;;4.72;3.53;;;;;;;;;;5115566;28;20616;-60
2021/12/31 13:49:56;;;;;;;4.57;3.28;;;;;;;;;;5115857;28;20257;-61
2021/12/31 13:52:26;;;;;;;4.68;3.45;;;;;;;;;;5115744;28;20240;-61
2021/12/31 13:54:56;;;;;;;4.40;3.05;;;;;;;;;;5115711;28;20174;-61
2021/12/31 13:57:24;;;;;;;4.85;3.60;;;;;;;;;;5115399;28;20606;-59
2021/12/31 13:59:50;;;;;;;4.85;3.35;;;;;;;;;;5116041;28;20254;-61
2021/12/31 14:02:17;;;;;;;4.28;3.58;;;;;;;;;;5115632;28;20178;-60
2021/12/31 14:04:57;;;;;;;3.70;3.30;;;;;;;;;;5115824;28;20523;-60
2021/12/31 14:07:38;;;;;;;3.40;3.10;;;;;;;;;;5115448;28;20209;-60
2021/12/31 14:10:06;;;;;;;4.03;2.78;;;;;;;;;;5115733;28;20226;-60
2021/12/31 14:12:42;;;;;;;3.80;3.38;;;;;;;;;;5115099;28;20158;-61
2021/12/31 14:15:08;;;;;;;3.80;3.40;;;;;;;;;;5115319;28;20651;-61
2021/12/31 14:17:34;;;;;;;4.65;3.53;;;;;;;;;;5115506;28;20162;-59
2021/12/31 14:20:00;;;;;;;3.63;3.30;;;;;;;;;;5115165;28;20171;-61
2021/12/31 14:22:26;;;;;;;4.40;2.90;;;;;;;;;;5114907;28;20177;-61
2021/12/31 14:24:52;;;;;;;3.67;3.28;;;;;;;;;;5114959;28;20218;-61
2021/12/31 14:27:18;;;;;;;3.60;3.30;;;;;;;;;;5114952;28;20167;-61
2021/12/31 14:29:44;;;;;;;3.10;2.88;;;;;;;;;;5097049;28;20167;-62
2021/12/31 14:32:10;;;;;;;3.20;2.90;;;;;;;;;;5114723;28;20175;-61
2021/12/31 14:34:36;;;;;;;3.50;3.20;;;;;;;;;;5115202;28;20569;-61
2021/12/31 14:37:13;;;;;;;3.20;2.65;;;;;;;;;;5114724;28;20537;-60
2021/12/31 14:39:49;;;;;;;2.65;2.45;;;;;;;;;;5115206;28;20151;-59
2021/12/31 14:42:15;;;;;;;4.03;2.95;;;;;;;;;;5114920;28;20161;-60
2021/12/31 14:44:41;;;;;;;2.78;2.58;;;;;;;;;;5114981;28;20273;-61
2021/12/31 14:47:07;;;;;;;2.28;2.05;;;;;;;;;;5115042;28;20177;-61
2021/12/31 14:49:35;;;;;;;2.40;2.20;;;;;;;;;;5114719;28;20164;-61
2021/12/31 14:52:02;;;;;;;2.35;2.15;;;;;;;;;;5114990;28;20171;-60